< < Back
Terminal Aerodrome Forecast


Current Version              Previous Versions:   1  2  3  4  5  6  7  8  9  

Terminal Aerodrome Forecast

015
FTUS42 KGSP 181256 AAA
TAFGSP
TAF AMD
KGSP 181256Z 1813/1912 VRB03KT P6SM OVC080
      TEMPO 1813/1814 FEW002
     FM181500 04006KT P6SM BKN050
     FM190500 08004KT 5SM BR OVC015
     FM190700 11010KT 4SM -SHRA BR OVC008=



Latest METAR

024
SAUS70 KWBC 181500 RRB
MTRGSP
METAR KGSP 181453Z 03004KT 10SM FEW095 22/17 A3001 RMK AO2 SLP155
T02170167 53003


USA.gov is the U.S. government's official web portal to all federal, state and local government web resources and services.